sensor_id;sensor_type;location;lat;lon;timestamp;pressure;altitude;pressure_sealevel;temperature;humidity
45621;BME280;31345;51.522;10.702;2023-04-15T00:01:52;98213.94;;;5.53;100.00
45621;BME280;31345;51.522;10.702;2023-04-15T00:04:25;98210.59;;;5.51;100.00
45621;BME280;31345;51.522;10.702;2023-04-15T00:06:57;98206.72;;;5.58;100.00
45621;BME280;31345;51.522;10.702;2023-04-15T00:09:32;98206.81;;;5.71;100.00
45621;BME280;31345;51.522;10.702;2023-04-15T00:12:00;98199.94;;;5.70;100.00
45621;BME280;31345;51.522;10.702;2023-04-15T00:14:33;98198.38;;;5.53;100.00
45621;BME280;31345;51.522;10.702;2023-04-15T00:17:01;98205.69;;;5.61;100.00
45621;BME280;31345;51.522;10.702;2023-04-15T00:19:28;98202.91;;;5.49;100.00
45621;BME280;31345;51.522;10.702;2023-04-15T00:22:01;98192.72;;;5.61;100.00
45621;BME280;31345;51.522;10.702;2023-04-15T00:24:28;98190.50;;;5.55;100.00
45621;BME280;31345;51.522;10.702;2023-04-15T00:27:03;98188.66;;;5.57;100.00
45621;BME280;31345;51.522;10.702;2023-04-15T00:29:36;98182.34;;;5.61;100.00
45621;BME280;31345;51.522;10.702;2023-04-15T00:32:04;98183.25;;;5.45;100.00
45621;BME280;31345;51.522;10.702;2023-04-15T00:34:37;98180.59;;;5.47;100.00
45621;BME280;31345;51.522;10.702;2023-04-15T00:37:10;98185.41;;;5.53;100.00
45621;BME280;31345;51.522;10.702;2023-04-15T00:39:38;98181.41;;;5.62;100.00
45621;BME280;31345;51.522;10.702;2023-04-15T00:42:12;98174.13;;;5.69;100.00
45621;BME280;31345;51.522;10.702;2023-04-15T00:44:44;98174.41;;;5.79;100.00
45621;BME280;31345;51.522;10.702;2023-04-15T00:47:12;98180.16;;;5.55;100.00
45621;BME280;31345;51.522;10.702;2023-04-15T00:49:40;98180.22;;;5.68;100.00
45621;BME280;31345;51.522;10.702;2023-04-15T00:52:13;98169.47;;;5.59;100.00
45621;BME280;31345;51.522;10.702;2023-04-15T00:54:46;98171.78;;;5.49;100.00
45621;BME280;31345;51.522;10.702;2023-04-15T00:57:14;98165.94;;;5.60;100.00
45621;BME280;31345;51.522;10.702;2023-04-15T00:59:43;98160.41;;;5.67;100.00
45621;BME280;31345;51.522;10.702;2023-04-15T01:02:10;98166.34;;;5.54;100.00
45621;BME280;31345;51.522;10.702;2023-04-15T01:04:38;98154.19;;;5.69;100.00
45621;BME280;31345;51.522;10.702;2023-04-15T01:07:10;98156.78;;;5.69;100.00
45621;BME280;31345;51.522;10.702;2023-04-15T01:09:43;98163.47;;;5.59;100.00
45621;BME280;31345;51.522;10.702;2023-04-15T01:12:18;98151.78;;;5.66;100.00
45621;BME280;31345;51.522;10.702;2023-04-15T01:14:46;98158.25;;;5.73;100.00
45621;BME280;31345;51.522;10.702;2023-04-15T01:17:19;98151.88;;;5.79;100.00
45621;BME280;31345;51.522;10.702;2023-04-15T01:19:47;98148.69;;;5.88;100.00
45621;BME280;31345;51.522;10.702;2023-04-15T01:22:20;98150.84;;;5.82;100.00
45621;BME280;31345;51.522;10.702;2023-04-15T01:24:56;98149.53;;;5.74;100.00
45621;BME280;31345;51.522;10.702;2023-04-15T01:27:38;98157.16;;;5.78;100.00
45621;BME280;31345;51.522;10.702;2023-04-15T01:30:11;98161.44;;;5.64;100.00
45621;BME280;31345;51.522;10.702;2023-04-15T01:32:38;98155.75;;;5.72;100.00
45621;BME280;31345;51.522;10.702;2023-04-15T01:35:07;98157.81;;;5.81;100.00
45621;BME280;31345;51.522;10.702;2023-04-15T01:37:35;98149.72;;;5.86;100.00
45621;BME280;31345;51.522;10.702;2023-04-15T01:40:09;98144.16;;;5.92;100.00
45621;BME280;31345;51.522;10.702;2023-04-15T01:42:43;98143.41;;;5.90;100.00
45621;BME280;31345;51.522;10.702;2023-04-15T01:45:16;98133.25;;;5.87;100.00
45621;BME280;31345;51.522;10.702;2023-04-15T01:47:48;98139.25;;;5.87;100.00
45621;BME280;31345;51.522;10.702;2023-04-15T01:50:16;98138.22;;;5.90;100.00
45621;BME280;31345;51.522;10.702;2023-04-15T01:52:49;98135.53;;;5.92;100.00
45621;BME280;31345;51.522;10.702;2023-04-15T01:55:22;98139.81;;;5.93;100.00
45621;BME280;31345;51.522;10.702;2023-04-15T01:57:57;98150.84;;;5.96;100.00
45621;BME280;31345;51.522;10.702;2023-04-15T02:00:29;98140.81;;;5.90;100.00
45621;BME280;31345;51.522;10.702;2023-04-15T02:03:04;98140.69;;;5.79;100.00
45621;BME280;31345;51.522;10.702;2023-04-15T02:05:36;98143.53;;;5.74;100.00
45621;BME280;31345;51.522;10.702;2023-04-15T02:08:09;98138.13;;;5.92;100.00
45621;BME280;31345;51.522;10.702;2023-04-15T02:10:38;98140.00;;;5.89;100.00
45621;BME280;31345;51.522;10.702;2023-04-15T02:13:12;98137.94;;;5.95;100.00
45621;BME280;31345;51.522;10.702;2023-04-15T02:15:39;98145.66;;;5.82;100.00
45621;BME280;31345;51.522;10.702;2023-04-15T02:18:07;98140.00;;;5.60;100.00
45621;BME280;31345;51.522;10.702;2023-04-15T02:20:35;98142.16;;;5.68;100.00
45621;BME280;31345;51.522;10.702;2023-04-15T02:23:03;98135.59;;;5.62;100.00
45621;BME280;31345;51.522;10.702;2023-04-15T02:25:33;98128.34;;;5.68;100.00
45621;BME280;31345;51.522;10.702;2023-04-15T02:28:05;98141.88;;;5.73;100.00
45621;BME280;31345;51.522;10.702;2023-04-15T02:30:39;98135.50;;;5.79;100.00
45621;BME280;31345;51.522;10.702;2023-04-15T02:33:07;98130.94;;;5.82;100.00
45621;BME280;31345;51.522;10.702;2023-04-15T02:35:40;98128.88;;;5.87;100.00
45621;BME280;31345;51.522;10.702;2023-04-15T02:38:14;98125.25;;;5.90;100.00
45621;BME280;31345;51.522;10.702;2023-04-15T02:40:43;98132.13;;;5.91;100.00
45621;BME280;31345;51.522;10.702;2023-04-15T02:43:12;98136.38;;;5.92;100.00
45621;BME280;31345;51.522;10.702;2023-04-15T02:45:41;98128.59;;;5.92;100.00
45621;BME280;31345;51.522;10.702;2023-04-15T02:48:14;98134.41;;;5.96;100.00
45621;BME280;31345;51.522;10.702;2023-04-15T02:50:44;98128.97;;;6.00;100.00
45621;BME280;31345;51.522;10.702;2023-04-15T02:53:18;98136.00;;;5.98;100.00
45621;BME280;31345;51.522;10.702;2023-04-15T02:55:52;98144.00;;;5.95;100.00
45621;BME280;31345;51.522;10.702;2023-04-15T02:58:19;98142.66;;;6.02;100.00
45621;BME280;31345;51.522;10.702;2023-04-15T03:00:53;98146.00;;;6.05;100.00
45621;BME280;31345;51.522;10.702;2023-04-15T03:03:21;98138.13;;;6.06;100.00
45621;BME280;31345;51.522;10.702;2023-04-15T03:05:54;98142.00;;;6.13;100.00
45621;BME280;31345;51.522;10.702;2023-04-15T03:08:27;98140.31;;;6.12;100.00
45621;BME280;31345;51.522;10.702;2023-04-15T03:11:01;98145.63;;;6.11;100.00
45621;BME280;31345;51.522;10.702;2023-04-15T03:13:34;98134.31;;;6.12;100.00
45621;BME280;31345;51.522;10.702;2023-04-15T03:16:16;98134.41;;;6.10;100.00
45621;BME280;31345;51.522;10.702;2023-04-15T03:18:48;98136.38;;;6.07;100.00
45621;BME280;31345;51.522;10.702;2023-04-15T03:21:22;98135.53;;;6.06;100.00
45621;BME280;31345;51.522;10.702;2023-04-15T03:23:50;98130.25;;;6.08;100.00
45621;BME280;31345;51.522;10.702;2023-04-15T03:26:26;98121.53;;;6.09;100.00
45621;BME280;31345;51.522;10.702;2023-04-15T03:29:02;98123.19;;;6.10;100.00
45621;BME280;31345;51.522;10.702;2023-04-15T03:31:31;98123.19;;;6.10;100.00
45621;BME280;31345;51.522;10.702;2023-04-15T03:33:58;98125.69;;;6.11;100.00
45621;BME280;31345;51.522;10.702;2023-04-15T03:36:31;98126.53;;;6.12;100.00
45621;BME280;31345;51.522;10.702;2023-04-15T03:39:04;98129.03;;;6.13;100.00
45621;BME280;31345;51.522;10.702;2023-04-15T03:41:32;98125.69;;;6.11;100.00
45621;BME280;31345;51.522;10.702;2023-04-15T03:43:59;98129.03;;;6.13;100.00
45621;BME280;31345;51.522;10.702;2023-04-15T03:46:33;98131.53;;;6.15;100.00
45621;BME280;31345;51.522;10.702;2023-04-15T03:49:01;98121.06;;;6.17;100.00
45621;BME280;31345;51.522;10.702;2023-04-15T03:51:34;98122.47;;;6.08;100.00
45621;BME280;31345;51.522;10.702;2023-04-15T03:54:07;98121.16;;;6.00;100.00
45621;BME280;31345;51.522;10.702;2023-04-15T03:56:40;98116.69;;;6.02;100.00
45621;BME280;31345;51.522;10.702;2023-04-15T03:59:07;98121.16;;;6.00;100.00
45621;BME280;31345;51.522;10.702;2023-04-15T04:01:41;98114.97;;;5.88;100.00
45621;BME280;31345;51.522;10.702;2023-04-15T04:04:14;98111.06;;;5.96;100.00
45621;BME280;31345;51.522;10.702;2023-04-15T04:06:41;98117.34;;;5.79;100.00
45621;BME280;31345;51.522;10.702;2023-04-15T04:09:09;98111.75;;;5.85;100.00
45621;BME280;31345;51.522;10.702;2023-04-15T04:11:41;98113.13;;;5.91;100.00
45621;BME280;31345;51.522;10.702;2023-04-15T04:14:10;98109.16;;;5.85;100.00
45621;BME280;31345;51.522;10.702;2023-04-15T04:16:44;98111.66;;;5.86;100.00
45621;BME280;31345;51.522;10.702;2023-04-15T04:19:17;98107.84;;;5.92;100.00
45621;BME280;31345;51.522;10.702;2023-04-15T04:21:45;98108.22;;;5.86;100.00
45621;BME280;31345;51.522;10.702;2023-04-15T04:24:18;98113.50;;;5.84;100.00
45621;BME280;31345;51.522;10.702;2023-04-15T04:26:51;98115.38;;;5.82;100.00
45621;BME280;31345;51.522;10.702;2023-04-15T04:29:18;98110.63;;;5.89;100.00
45621;BME280;31345;51.522;10.702;2023-04-15T04:31:52;98105.16;;;5.94;100.00
45621;BME280;31345;51.522;10.702;2023-04-15T04:34:20;98118.41;;;5.89;100.00
45621;BME280;31345;51.522;10.702;2023-04-15T04:36:53;98117.28;;;5.93;100.00
45621;BME280;31345;51.522;10.702;2023-04-15T04:39:26;98116.91;;;5.99;100.00
45621;BME280;31345;51.522;10.702;2023-04-15T04:41:53;98117.00;;;5.98;100.00
45621;BME280;31345;51.522;10.702;2023-04-15T04:44:21;98112.53;;;6.00;100.00
45621;BME280;31345;51.522;10.702;2023-04-15T04:46:54;98115.22;;;5.98;100.00
45621;BME280;31345;51.522;10.702;2023-04-15T04:49:22;98111.47;;;5.89;100.00
45621;BME280;31345;51.522;10.702;2023-04-15T04:51:50;98114.06;;;5.89;100.00
45621;BME280;31345;51.522;10.702;2023-04-15T04:54:22;98112.94;;;5.94;100.00
45621;BME280;31345;51.522;10.702;2023-04-15T05:06:44;98109.31;;;5.96;100.00
45621;BME280;31345;51.522;10.702;2023-04-15T05:57:44;98103.78;;;6.15;100.00
45621;BME280;31345;51.522;10.702;2023-04-15T06:00:17;98100.91;;;6.20;100.00
45621;BME280;31345;51.522;10.702;2023-04-15T06:02:50;98096.44;;;6.22;100.00
45621;BME280;31345;51.522;10.702;2023-04-15T06:05:18;98093.66;;;6.25;100.00
45621;BME280;31345;51.522;10.702;2023-04-15T06:07:51;98099.41;;;6.31;100.00
45621;BME280;31345;51.522;10.702;2023-04-15T06:10:18;98102.53;;;6.36;100.00
45621;BME280;31345;51.522;10.702;2023-04-15T06:12:53;98101.75;;;6.21;100.00
45621;BME280;31345;51.522;10.702;2023-04-15T06:15:25;98100.72;;;6.23;100.00
45621;BME280;31345;51.522;10.702;2023-04-15T06:17:58;98105.22;;;6.34;100.00
45621;BME280;31345;51.522;10.702;2023-04-15T06:20:26;98109.28;;;6.38;100.00
45621;BME280;31345;51.522;10.702;2023-04-15T06:22:54;98104.72;;;6.42;100.00
45621;BME280;31345;51.522;10.702;2023-04-15T06:25:22;98109.00;;;6.43;100.00
45621;BME280;31345;51.522;10.702;2023-04-15T06:27:49;98118.63;;;6.41;100.00
45621;BME280;31345;51.522;10.702;2023-04-15T06:30:23;98115.41;;;6.37;100.00
45621;BME280;31345;51.522;10.702;2023-04-15T06:32:56;98113.97;;;6.46;100.00
45621;BME280;31345;51.522;10.702;2023-04-15T06:35:29;98124.47;;;6.45;100.00
45621;BME280;31345;51.522;10.702;2023-04-15T06:37:56;98120.09;;;6.45;100.00
45621;BME280;31345;51.522;10.702;2023-04-15T06:40:29;98132.78;;;6.50;100.00
45621;BME280;31345;51.522;10.702;2023-04-15T06:43:02;98129.88;;;6.54;100.00
45621;BME280;31345;51.522;10.702;2023-04-15T06:45:31;98136.75;;;6.56;100.00
45621;BME280;31345;51.522;10.702;2023-04-15T06:48:04;98132.59;;;6.53;100.00
45621;BME280;31345;51.522;10.702;2023-04-15T06:50:37;98134.97;;;6.43;100.00
45621;BME280;31345;51.522;10.702;2023-04-15T06:53:09;98127.88;;;6.45;100.00
45621;BME280;31345;51.522;10.702;2023-04-15T06:55:43;98129.34;;;6.49;100.00
45621;BME280;31345;51.522;10.702;2023-04-15T06:58:16;98135.06;;;6.54;100.00
45621;BME280;31345;51.522;10.702;2023-04-15T07:00:45;98133.84;;;6.60;100.00
45621;BME280;31345;51.522;10.702;2023-04-15T07:03:13;98135.25;;;6.79;100.00
45621;BME280;31345;51.522;10.702;2023-04-15T07:05:41;98131.38;;;6.72;100.00
45621;BME280;31345;51.522;10.702;2023-04-15T07:08:15;98129.31;;;6.64;100.00
45621;BME280;31345;51.522;10.702;2023-04-15T07:10:42;98131.16;;;6.62;100.00
45621;BME280;31345;51.522;10.702;2023-04-15T07:13:10;98140.63;;;6.63;100.00
45621;BME280;31345;51.522;10.702;2023-04-15T07:15:42;98147.28;;;6.67;100.00
45621;BME280;31345;51.522;10.702;2023-04-15T07:18:17;98148.44;;;6.76;100.00
45621;BME280;31345;51.522;10.702;2023-04-15T07:20:45;98155.28;;;6.64;100.00
45621;BME280;31345;51.522;10.702;2023-04-15T07:23:18;98152.56;;;6.65;100.00
45621;BME280;31345;51.522;10.702;2023-04-15T07:25:51;98148.66;;;6.73;100.00
45621;BME280;31345;51.522;10.702;2023-04-15T07:28:19;98149.19;;;6.78;100.00
45621;BME280;31345;51.522;10.702;2023-04-15T07:30:47;98141.06;;;6.70;100.00
45621;BME280;31345;51.522;10.702;2023-04-15T07:33:21;98143.75;;;6.68;100.00
45621;BME280;31345;51.522;10.702;2023-04-15T07:35:49;98133.78;;;6.75;100.00
45621;BME280;31345;51.522;10.702;2023-04-15T07:38:22;98133.78;;;6.75;100.00
45621;BME280;31345;51.522;10.702;2023-04-15T07:40:54;98136.28;;;6.76;100.00
45621;BME280;31345;51.522;10.702;2023-04-15T07:43:23;98137.13;;;6.77;100.00
45621;BME280;31345;51.522;10.702;2023-04-15T07:45:56;98134.53;;;6.77;100.00
45621;BME280;31345;51.522;10.702;2023-04-15T07:48:30;98138.25;;;6.73;100.00
45621;BME280;31345;51.522;10.702;2023-04-15T07:51:02;98140.13;;;6.71;100.00
45621;BME280;31345;51.522;10.702;2023-04-15T07:53:35;98136.75;;;6.56;100.00
45621;BME280;31345;51.522;10.702;2023-04-15T07:56:08;98130.53;;;6.58;100.00
45621;BME280;31345;51.522;10.702;2023-04-15T07:58:41;98131.69;;;6.67;100.00
45621;BME280;31345;51.522;10.702;2023-04-15T08:01:14;98129.44;;;6.75;100.00
45621;BME280;31345;51.522;10.702;2023-04-15T08:03:48;98130.16;;;6.77;100.00
45621;BME280;31345;51.522;10.702;2023-04-15T08:06:16;98136.38;;;6.75;100.00
45621;BME280;31345;51.522;10.702;2023-04-15T08:08:48;98131.72;;;6.80;100.00
45621;BME280;31345;51.522;10.702;2023-04-15T08:11:21;98126.84;;;6.88;100.00
45621;BME280;31345;51.522;10.702;2023-04-15T08:13:50;98129.34;;;6.90;100.00
45621;BME280;31345;51.522;10.702;2023-04-15T08:16:24;98126.53;;;6.93;100.00
45621;BME280;31345;51.522;10.702;2023-04-15T08:18:55;98128.66;;;7.01;100.00
45621;BME280;31345;51.522;10.702;2023-04-15T08:21:27;98127.91;;;7.12;100.00
45621;BME280;31345;51.522;10.702;2023-04-15T08:23:56;98141.22;;;7.07;100.00
45621;BME280;31345;51.522;10.702;2023-04-15T08:26:23;98147.25;;;7.08;100.00
45621;BME280;31345;51.522;10.702;2023-04-15T08:28:51;98146.94;;;7.12;100.00
45621;BME280;31345;51.522;10.702;2023-04-15T08:31:25;98154.44;;;7.17;100.00
45621;BME280;31345;51.522;10.702;2023-04-15T08:33:56;98152.56;;;7.19;100.00
45621;BME280;31345;51.522;10.702;2023-04-15T08:36:29;98146.81;;;7.14;100.00
45621;BME280;31345;51.522;10.702;2023-04-15T08:38:57;98148.19;;;7.20;100.00
45621;BME280;31345;51.522;10.702;2023-04-15T08:41:33;98144.97;;;7.16;100.00
45621;BME280;31345;51.522;10.702;2023-04-15T08:44:03;98153.50;;;7.31;100.00
45621;BME280;31345;51.522;10.702;2023-04-15T08:46:36;98155.78;;;7.36;100.00
45621;BME280;31345;51.522;10.702;2023-04-15T08:49:11;98153.72;;;7.41;100.00
45621;BME280;31345;51.522;10.702;2023-04-15T08:51:44;98155.25;;;7.43;100.00
45621;BME280;31345;51.522;10.702;2023-04-15T08:54:17;98146.75;;;7.54;100.00
45621;BME280;31345;51.522;10.702;2023-04-15T08:56:51;98157.91;;;7.56;100.00
45621;BME280;31345;51.522;10.702;2023-04-15T08:59:24;98165.16;;;7.64;100.00
45621;BME280;31345;51.522;10.702;2023-04-15T09:01:52;98165.28;;;7.63;100.00
45621;BME280;31345;51.522;10.702;2023-04-15T09:04:21;98166.94;;;7.64;100.00
45621;BME280;31345;51.522;10.702;2023-04-15T09:06:54;98161.00;;;7.75;100.00
45621;BME280;31345;51.522;10.702;2023-04-15T09:09:27;98163.81;;;7.72;100.00
45621;BME280;31345;51.522;10.702;2023-04-15T09:12:01;98171.19;;;7.78;100.00
45621;BME280;31345;51.522;10.702;2023-04-15T09:14:34;98172.31;;;7.87;100.00
45621;BME280;31345;51.522;10.702;2023-04-15T09:17:09;98172.50;;;7.97;100.00
45621;BME280;31345;51.522;10.702;2023-04-15T09:19:43;98174.28;;;7.96;100.00
45621;BME280;31345;51.522;10.702;2023-04-15T09:22:16;98177.84;;;7.82;100.00
45621;BME280;31345;51.522;10.702;2023-04-15T09:24:49;98180.66;;;7.92;100.00
45621;BME280;31345;51.522;10.702;2023-04-15T09:27:16;98178.16;;;7.90;100.00
45621;BME280;31345;51.522;10.702;2023-04-15T09:29:49;98177.41;;;7.88;100.00
45621;BME280;31345;51.522;10.702;2023-04-15T09:32:17;98188.16;;;7.71;100.00
45621;BME280;31345;51.522;10.702;2023-04-15T09:34:48;98189.00;;;7.71;100.00
45621;BME280;31345;51.522;10.702;2023-04-15T09:37:33;98188.69;;;7.76;100.00
45621;BME280;31345;51.522;10.702;2023-04-15T09:40:07;98193.47;;;7.82;100.00
45621;BME280;31345;51.522;10.702;2023-04-15T09:42:55;98192.63;;;7.81;100.00
45621;BME280;31345;51.522;10.702;2023-04-15T09:45:25;98197.41;;;7.88;100.00
45621;BME280;31345;51.522;10.702;2023-04-15T09:47:59;98198.03;;;7.91;100.00
45621;BME280;31345;51.522;10.702;2023-04-15T09:50:47;98199.56;;;7.94;100.00
45621;BME280;31345;51.522;10.702;2023-04-15T09:53:24;98197.53;;;7.86;100.00
45621;BME280;31345;51.522;10.702;2023-04-15T09:56:03;98207.63;;;7.91;100.00
45621;BME280;31345;51.522;10.702;2023-04-15T09:58:57;98204.19;;;7.90;100.00
45621;BME280;31345;51.522;10.702;2023-04-15T10:01:32;98209.38;;;7.77;100.00
45621;BME280;31345;51.522;10.702;2023-04-15T10:04:05;98213.44;;;7.81;100.00
45621;BME280;31345;51.522;10.702;2023-04-15T10:06:57;98216.56;;;7.87;100.00
45621;BME280;31345;51.522;10.702;2023-04-15T10:09:37;98217.38;;;8.00;100.00
45621;BME280;31345;51.522;10.702;2023-04-15T10:12:11;98215.72;;;7.99;100.00
45621;BME280;31345;51.522;10.702;2023-04-15T10:14:39;98218.53;;;7.96;100.00
45621;BME280;31345;51.522;10.702;2023-04-15T10:17:17;98208.53;;;7.90;100.00
45621;BME280;31345;51.522;10.702;2023-04-15T10:19:45;98211.03;;;7.91;100.00
45621;BME280;31345;51.522;10.702;2023-04-15T10:22:15;98211.03;;;8.04;100.00
45621;BME280;31345;51.522;10.702;2023-04-15T10:24:45;98223.41;;;8.01;100.00
45621;BME280;31345;51.522;10.702;2023-04-15T10:27:21;98226.25;;;7.98;100.00
45621;BME280;31345;51.522;10.702;2023-04-15T10:29:50;98225.94;;;7.89;100.00
45621;BME280;31345;51.522;10.702;2023-04-15T10:32:19;98234.16;;;7.96;100.00
45621;BME280;31345;51.522;10.702;2023-04-15T10:34:53;98231.56;;;7.96;100.00
45621;BME280;31345;51.522;10.702;2023-04-15T10:37:39;98228.09;;;8.08;100.00
45621;BME280;31345;51.522;10.702;2023-04-15T10:40:24;98219.53;;;8.19;100.00
45621;BME280;31345;51.522;10.702;2023-04-15T10:42:53;98227.25;;;8.21;100.00
45621;BME280;31345;51.522;10.702;2023-04-15T10:45:21;98232.75;;;8.16;100.00
45621;BME280;31345;51.522;10.702;2023-04-15T10:47:54;98234.19;;;8.20;100.00
45621;BME280;31345;51.522;10.702;2023-04-15T10:50:24;98236.50;;;8.12;100.00
45621;BME280;31345;51.522;10.702;2023-04-15T10:53:02;98236.75;;;8.09;100.00
45621;BME280;31345;51.522;10.702;2023-04-15T10:55:35;98247.47;;;8.17;100.00
45621;BME280;31345;51.522;10.702;2023-04-15T10:58:08;98245.66;;;8.18;100.00
45621;BME280;31345;51.522;10.702;2023-04-15T11:00:49;98252.88;;;8.14;100.00
45621;BME280;31345;51.522;10.702;2023-04-15T11:03:33;98256.19;;;8.29;100.00
45621;BME280;31345;51.522;10.702;2023-04-15T11:06:08;98243.88;;;8.31;100.00
45621;BME280;31345;51.522;10.702;2023-04-15T11:08:55;98246.88;;;8.38;100.00
45621;BME280;31345;51.522;10.702;2023-04-15T11:14:39;98245.34;;;8.36;100.00
45621;BME280;31345;51.522;10.702;2023-04-15T11:17:08;98247.41;;;8.30;100.00
45621;BME280;31345;51.522;10.702;2023-04-15T11:19:36;98259.19;;;8.36;100.00
45621;BME280;31345;51.522;10.702;2023-04-15T11:22:09;98260.31;;;8.45;100.00
45621;BME280;31345;51.522;10.702;2023-04-15T11:24:50;98261.66;;;8.51;100.00
45621;BME280;31345;51.522;10.702;2023-04-15T11:27:23;98262.06;;;8.44;100.00
45621;BME280;31345;51.522;10.702;2023-04-15T11:29:55;98267.53;;;8.41;100.00
45621;BME280;31345;51.522;10.702;2023-04-15T11:32:28;98283.16;;;8.41;100.00
45621;BME280;31345;51.522;10.702;2023-04-15T11:34:55;98280.31;;;8.44;100.00
45621;BME280;31345;51.522;10.702;2023-04-15T11:37:28;98279.16;;;8.49;100.00
45621;BME280;31345;51.522;10.702;2023-04-15T11:39:58;98276.97;;;8.55;100.00
45621;BME280;31345;51.522;10.702;2023-04-15T11:42:30;98280.91;;;8.61;100.00
45621;BME280;31345;51.522;10.702;2023-04-15T11:45:06;98282.84;;;8.70;100.00
45621;BME280;31345;51.522;10.702;2023-04-15T11:47:40;98279.00;;;8.63;100.00
45621;BME280;31345;51.522;10.702;2023-04-15T11:50:16;98290.88;;;8.67;100.00
45621;BME280;31345;51.522;10.702;2023-04-15T11:52:52;98297.47;;;8.60;100.00
45621;BME280;31345;51.522;10.702;2023-04-15T11:55:26;98287.78;;;8.62;100.00
45621;BME280;31345;51.522;10.702;2023-04-15T11:58:11;98289.22;;;8.66;100.00
45621;BME280;31345;51.522;10.702;2023-04-15T12:00:48;98282.34;;;8.65;100.00
45621;BME280;31345;51.522;10.702;2023-04-15T12:03:20;98281.81;;;8.73;100.00
45621;BME280;31345;51.522;10.702;2023-04-15T12:06:11;98284.91;;;8.78;100.00
45621;BME280;31345;51.522;10.702;2023-04-15T12:09:08;98287.41;;;8.80;100.00
45621;BME280;31345;51.522;10.702;2023-04-15T12:11:45;98294.84;;;8.73;100.00
45621;BME280;31345;51.522;10.702;2023-04-15T12:14:22;98301.69;;;8.74;100.00
45621;BME280;31345;51.522;10.702;2023-04-15T12:16:52;98307.44;;;8.79;100.00
45621;BME280;31345;51.522;10.702;2023-04-15T12:19:27;98310.06;;;8.66;100.00
45621;BME280;31345;51.522;10.702;2023-04-15T12:21:58;98304.41;;;8.72;100.00
45621;BME280;31345;51.522;10.702;2023-04-15T12:24:31;98317.56;;;8.71;100.00
45621;BME280;31345;51.522;10.702;2023-04-15T12:27:04;98321.75;;;8.60;100.00
45621;BME280;31345;51.522;10.702;2023-04-15T12:29:33;98313.09;;;8.60;100.00
45621;BME280;31345;51.522;10.702;2023-04-15T12:32:07;98320.09;;;8.59;100.00
45621;BME280;31345;51.522;10.702;2023-04-15T12:34:36;98331.22;;;8.75;100.00
45621;BME280;31345;51.522;10.702;2023-04-15T12:37:11;98325.16;;;8.74;100.00
45621;BME280;31345;51.522;10.702;2023-04-15T12:39:46;98326.00;;;8.75;100.00
45621;BME280;31345;51.522;10.702;2023-04-15T12:42:20;98327.75;;;8.74;100.00
45621;BME280;31345;51.522;10.702;2023-04-15T12:44:53;98330.06;;;8.79;100.00
45621;BME280;31345;51.522;10.702;2023-04-15T12:47:21;98337.09;;;8.90;100.00
45621;BME280;31345;51.522;10.702;2023-04-15T12:49:53;98339.50;;;8.93;100.00
45621;BME280;31345;51.522;10.702;2023-04-15T12:52:26;98348.03;;;8.95;100.00
45621;BME280;31345;51.522;10.702;2023-04-15T12:54:58;98345.56;;;8.93;100.00
45621;BME280;31345;51.522;10.702;2023-04-15T12:57:28;98350.31;;;8.99;100.00
45621;BME280;31345;51.522;10.702;2023-04-15T13:00:01;98354.97;;;8.83;100.00
45621;BME280;31345;51.522;10.702;2023-04-15T13:02:37;98350.78;;;8.80;100.00
45621;BME280;31345;51.522;10.702;2023-04-15T13:05:09;98352.34;;;8.83;100.00
45621;BME280;31345;51.522;10.702;2023-04-15T13:07:37;98356.97;;;8.79;100.00
45621;BME280;31345;51.522;10.702;2023-04-15T13:10:05;98354.22;;;8.81;100.00
45621;BME280;31345;51.522;10.702;2023-04-15T13:12:35;98357.47;;;8.84;100.00
45621;BME280;31345;51.522;10.702;2023-04-15T13:15:08;98359.44;;;8.81;100.00
45621;BME280;31345;51.522;10.702;2023-04-15T13:17:37;98357.66;;;8.81;100.00
45621;BME280;31345;51.522;10.702;2023-04-15T13:20:10;98367.38;;;8.79;100.00
45621;BME280;31345;51.522;10.702;2023-04-15T13:22:37;98370.03;;;8.91;100.00
45621;BME280;31345;51.522;10.702;2023-04-15T13:25:10;98360.91;;;8.85;100.00
45621;BME280;31345;51.522;10.702;2023-04-15T13:27:44;98378.59;;;8.93;100.00
45621;BME280;31345;51.522;10.702;2023-04-15T13:30:12;98373.38;;;8.93;100.00
45621;BME280;31345;51.522;10.702;2023-04-15T13:32:44;98387.22;;;9.06;100.00
45621;BME280;31345;51.522;10.702;2023-04-15T13:35:17;98384.59;;;9.06;100.00
45621;BME280;31345;51.522;10.702;2023-04-15T13:37:45;98383.59;;;8.96;100.00
45621;BME280;31345;51.522;10.702;2023-04-15T13:40:13;98395.50;;;8.87;100.00
45621;BME280;31345;51.522;10.702;2023-04-15T13:42:41;98400.00;;;8.85;100.00
45621;BME280;31345;51.522;10.702;2023-04-15T13:45:10;98402.56;;;8.98;100.00
45621;BME280;31345;51.522;10.702;2023-04-15T13:47:39;98408.63;;;8.98;100.00
45621;BME280;31345;51.522;10.702;2023-04-15T13:50:07;98408.53;;;9.00;100.00
45621;BME280;31345;51.522;10.702;2023-04-15T13:52:40;98415.31;;;8.90;100.00
45621;BME280;31345;51.522;10.702;2023-04-15T13:55:09;98416.34;;;9.00;100.00
45621;BME280;31345;51.522;10.702;2023-04-15T13:57:36;98416.88;;;8.92;100.00
45621;BME280;31345;51.522;10.702;2023-04-15T14:00:05;98419.38;;;8.94;100.00
45621;BME280;31345;51.522;10.702;2023-04-15T14:02:39;98427.41;;;8.91;100.00
45621;BME280;31345;51.522;10.702;2023-04-15T14:05:12;98430.34;;;8.86;100.00
45621;BME280;31345;51.522;10.702;2023-04-15T14:07:45;98435.56;;;8.86;100.00
45621;BME280;31345;51.522;10.702;2023-04-15T14:10:12;98425.84;;;8.88;100.00
45621;BME280;31345;51.522;10.702;2023-04-15T14:12:45;98433.91;;;8.85;100.00
45621;BME280;31345;51.522;10.702;2023-04-15T14:15:18;98439.81;;;8.87;100.00
45621;BME280;31345;51.522;10.702;2023-04-15T14:17:52;98442.31;;;8.89;100.00